sensor_id;sensor_type;location;lat;lon;timestamp;temperature;humidity
30250;DHT22;17064;47.974;13.826;2023-08-08T00:01:53;12.10;99.90
30250;DHT22;17064;47.974;13.826;2023-08-08T00:06:54;12.10;99.90
30250;DHT22;17064;47.974;13.826;2023-08-08T00:11:54;12.10;99.90
30250;DHT22;17064;47.974;13.826;2023-08-08T00:16:57;12.10;99.90
30250;DHT22;17064;47.974;13.826;2023-08-08T00:21:58;12.10;99.90
30250;DHT22;17064;47.974;13.826;2023-08-08T00:26:59;12.10;99.90
30250;DHT22;17064;47.974;13.826;2023-08-08T00:31:59;12.10;99.90
30250;DHT22;17064;47.974;13.826;2023-08-08T00:37:00;12.20;99.90
30250;DHT22;17064;47.974;13.826;2023-08-08T00:42:01;12.10;99.90
30250;DHT22;17064;47.974;13.826;2023-08-08T00:47:01;12.20;99.90
30250;DHT22;17064;47.974;13.826;2023-08-08T00:52:02;12.20;99.90
30250;DHT22;17064;47.974;13.826;2023-08-08T00:57:03;12.20;99.90
30250;DHT22;17064;47.974;13.826;2023-08-08T01:02:05;12.20;99.90
30250;DHT22;17064;47.974;13.826;2023-08-08T01:12:16;12.10;99.90
30250;DHT22;17064;47.974;13.826;2023-08-08T01:17:17;12.00;99.90
30250;DHT22;17064;47.974;13.826;2023-08-08T01:22:25;11.90;99.90
30250;DHT22;17064;47.974;13.826;2023-08-08T01:27:28;11.80;99.90
30250;DHT22;17064;47.974;13.826;2023-08-08T01:32:29;11.70;99.90
30250;DHT22;17064;47.974;13.826;2023-08-08T01:37:36;11.70;99.90
30250;DHT22;17064;47.974;13.826;2023-08-08T01:42:40;11.70;99.90
30250;DHT22;17064;47.974;13.826;2023-08-08T01:47:42;11.70;99.90
30250;DHT22;17064;47.974;13.826;2023-08-08T01:52:42;11.70;99.90
30250;DHT22;17064;47.974;13.826;2023-08-08T01:57:43;11.70;99.90
30250;DHT22;17064;47.974;13.826;2023-08-08T02:02:44;11.70;99.90
30250;DHT22;17064;47.974;13.826;2023-08-08T02:07:45;11.70;99.90
30250;DHT22;17064;47.974;13.826;2023-08-08T02:12:45;11.70;99.90
30250;DHT22;17064;47.974;13.826;2023-08-08T02:17:46;11.70;99.90
30250;DHT22;17064;47.974;13.826;2023-08-08T02:22:47;11.80;99.90
30250;DHT22;17064;47.974;13.826;2023-08-08T02:27:48;11.80;99.90
30250;DHT22;17064;47.974;13.826;2023-08-08T02:32:49;11.80;99.90
30250;DHT22;17064;47.974;13.826;2023-08-08T02:37:50;11.70;99.90
30250;DHT22;17064;47.974;13.826;2023-08-08T02:42:50;11.60;99.90
30250;DHT22;17064;47.974;13.826;2023-08-08T02:47:51;11.60;99.90
30250;DHT22;17064;47.974;13.826;2023-08-08T02:52:52;11.50;99.90
30250;DHT22;17064;47.974;13.826;2023-08-08T02:57:52;11.50;99.90
30250;DHT22;17064;47.974;13.826;2023-08-08T03:02:53;11.50;99.90
30250;DHT22;17064;47.974;13.826;2023-08-08T03:07:54;11.30;99.90
30250;DHT22;17064;47.974;13.826;2023-08-08T03:12:54;11.30;99.90
30250;DHT22;17064;47.974;13.826;2023-08-08T03:17:55;11.20;99.90
30250;DHT22;17064;47.974;13.826;2023-08-08T03:22:56;11.20;99.90
30250;DHT22;17064;47.974;13.826;2023-08-08T03:27:57;11.10;99.90
30250;DHT22;17064;47.974;13.826;2023-08-08T03:32:57;11.10;99.90
30250;DHT22;17064;47.974;13.826;2023-08-08T03:37:58;11.10;99.90
30250;DHT22;17064;47.974;13.826;2023-08-08T03:42:58;11.10;99.90
30250;DHT22;17064;47.974;13.826;2023-08-08T03:47:59;11.00;99.90
30250;DHT22;17064;47.974;13.826;2023-08-08T03:53:00;11.00;99.90
30250;DHT22;17064;47.974;13.826;2023-08-08T03:58:01;11.00;99.90
30250;DHT22;17064;47.974;13.826;2023-08-08T04:03:01;11.00;99.90
30250;DHT22;17064;47.974;13.826;2023-08-08T04:08:02;10.90;99.90
30250;DHT22;17064;47.974;13.826;2023-08-08T04:13:03;10.80;99.90
30250;DHT22;17064;47.974;13.826;2023-08-08T04:18:04;10.80;99.90
30250;DHT22;17064;47.974;13.826;2023-08-08T04:23:06;10.80;99.90
30250;DHT22;17064;47.974;13.826;2023-08-08T04:28:07;10.80;99.90
30250;DHT22;17064;47.974;13.826;2023-08-08T04:33:08;10.80;99.90
30250;DHT22;17064;47.974;13.826;2023-08-08T04:38:09;10.80;99.90
30250;DHT22;17064;47.974;13.826;2023-08-08T04:43:10;10.90;99.90
30250;DHT22;17064;47.974;13.826;2023-08-08T04:48:10;10.90;99.90
30250;DHT22;17064;47.974;13.826;2023-08-08T04:53:11;11.00;99.90
30250;DHT22;17064;47.974;13.826;2023-08-08T04:58:12;11.00;99.90
30250;DHT22;17064;47.974;13.826;2023-08-08T05:03:13;11.00;99.90
30250;DHT22;17064;47.974;13.826;2023-08-08T05:08:14;11.00;99.90
30250;DHT22;17064;47.974;13.826;2023-08-08T05:13:15;11.10;99.90
30250;DHT22;17064;47.974;13.826;2023-08-08T05:18:15;11.20;99.90
30250;DHT22;17064;47.974;13.826;2023-08-08T05:23:16;11.30;99.90
30250;DHT22;17064;47.974;13.826;2023-08-08T05:28:17;11.40;99.90
30250;DHT22;17064;47.974;13.826;2023-08-08T05:33:17;11.50;99.90
30250;DHT22;17064;47.974;13.826;2023-08-08T05:38:18;11.60;99.90
30250;DHT22;17064;47.974;13.826;2023-08-08T05:43:19;11.80;99.90
30250;DHT22;17064;47.974;13.826;2023-08-08T05:48:22;11.80;99.90
30250;DHT22;17064;47.974;13.826;2023-08-08T05:53:22;11.90;99.90
30250;DHT22;17064;47.974;13.826;2023-08-08T05:58:23;11.90;99.90
30250;DHT22;17064;47.974;13.826;2023-08-08T06:03:24;12.00;99.90
30250;DHT22;17064;47.974;13.826;2023-08-08T06:08:24;12.00;99.90
30250;DHT22;17064;47.974;13.826;2023-08-08T06:13:25;12.10;99.90
30250;DHT22;17064;47.974;13.826;2023-08-08T06:18:26;12.10;99.90
30250;DHT22;17064;47.974;13.826;2023-08-08T06:23:26;12.10;99.90
30250;DHT22;17064;47.974;13.826;2023-08-08T06:28:27;12.10;99.90
30250;DHT22;17064;47.974;13.826;2023-08-08T06:33:28;12.20;99.90
30250;DHT22;17064;47.974;13.826;2023-08-08T06:38:28;12.20;99.90
30250;DHT22;17064;47.974;13.826;2023-08-08T06:43:30;12.40;99.90
30250;DHT22;17064;47.974;13.826;2023-08-08T06:48:31;12.70;99.90
30250;DHT22;17064;47.974;13.826;2023-08-08T06:53:31;13.00;99.90
30250;DHT22;17064;47.974;13.826;2023-08-08T06:58:32;13.30;99.90
30250;DHT22;17064;47.974;13.826;2023-08-08T07:03:33;13.80;99.90
30250;DHT22;17064;47.974;13.826;2023-08-08T07:08:33;14.20;99.90
30250;DHT22;17064;47.974;13.826;2023-08-08T07:13:34;14.50;99.90
30250;DHT22;17064;47.974;13.826;2023-08-08T07:18:35;15.00;99.90
30250;DHT22;17064;47.974;13.826;2023-08-08T07:23:35;15.40;99.90
30250;DHT22;17064;47.974;13.826;2023-08-08T07:28:36;15.80;99.90
30250;DHT22;17064;47.974;13.826;2023-08-08T07:33:37;16.10;99.90
30250;DHT22;17064;47.974;13.826;2023-08-08T07:38:37;16.50;99.90
30250;DHT22;17064;47.974;13.826;2023-08-08T07:43:38;16.80;99.90
30250;DHT22;17064;47.974;13.826;2023-08-08T07:48:39;16.90;99.90
30250;DHT22;17064;47.974;13.826;2023-08-08T07:53:40;17.20;99.90
30250;DHT22;17064;47.974;13.826;2023-08-08T07:58:41;17.40;99.90
30250;DHT22;17064;47.974;13.826;2023-08-08T08:03:42;17.60;99.90
30250;DHT22;17064;47.974;13.826;2023-08-08T08:08:42;17.90;99.90
30250;DHT22;17064;47.974;13.826;2023-08-08T08:13:43;18.20;99.90
30250;DHT22;17064;47.974;13.826;2023-08-08T08:18:44;18.30;99.90
30250;DHT22;17064;47.974;13.826;2023-08-08T08:23:46;18.60;99.90
30250;DHT22;17064;47.974;13.826;2023-08-08T08:28:48;18.80;99.90
30250;DHT22;17064;47.974;13.826;2023-08-08T08:33:49;18.90;99.90
30250;DHT22;17064;47.974;13.826;2023-08-08T08:38:49;19.20;99.90
30250;DHT22;17064;47.974;13.826;2023-08-08T08:43:54;19.40;99.60
30250;DHT22;17064;47.974;13.826;2023-08-08T08:48:55;19.80;99.90
30250;DHT22;17064;47.974;13.826;2023-08-08T08:53:58;20.00;98.10
30250;DHT22;17064;47.974;13.826;2023-08-08T08:59:00;20.30;97.20
30250;DHT22;17064;47.974;13.826;2023-08-08T09:04:02;20.40;96.30
30250;DHT22;17064;47.974;13.826;2023-08-08T09:09:03;20.40;95.10
30250;DHT22;17064;47.974;13.826;2023-08-08T09:14:18;20.60;94.50
30250;DHT22;17064;47.974;13.826;2023-08-08T09:19:21;20.70;93.20
30250;DHT22;17064;47.974;13.826;2023-08-08T09:24:21;20.80;91.60
30250;DHT22;17064;47.974;13.826;2023-08-08T09:29:22;20.90;90.80
30250;DHT22;17064;47.974;13.826;2023-08-08T09:34:25;21.00;91.50
30250;DHT22;17064;47.974;13.826;2023-08-08T09:39:28;21.40;90.00
30250;DHT22;17064;47.974;13.826;2023-08-08T09:44:29;21.40;83.80
30250;DHT22;17064;47.974;13.826;2023-08-08T09:49:31;21.10;83.10
30250;DHT22;17064;47.974;13.826;2023-08-08T09:54:34;21.00;81.10
30250;DHT22;17064;47.974;13.826;2023-08-08T09:59:37;21.10;85.40
30250;DHT22;17064;47.974;13.826;2023-08-08T10:04:38;21.20;82.90
30250;DHT22;17064;47.974;13.826;2023-08-08T10:09:39;21.50;82.60
30250;DHT22;17064;47.974;13.826;2023-08-08T10:14:42;21.70;76.30
30250;DHT22;17064;47.974;13.826;2023-08-08T10:19:54;21.70;81.50
30250;DHT22;17064;47.974;13.826;2023-08-08T10:24:55;21.80;75.00
30250;DHT22;17064;47.974;13.826;2023-08-08T10:30:10;21.90;74.60
30250;DHT22;17064;47.974;13.826;2023-08-08T10:35:12;22.00;71.80
30250;DHT22;17064;47.974;13.826;2023-08-08T10:40:17;22.00;75.40
30250;DHT22;17064;47.974;13.826;2023-08-08T10:45:18;22.10;67.50
30250;DHT22;17064;47.974;13.826;2023-08-08T10:50:23;22.00;67.90
30250;DHT22;17064;47.974;13.826;2023-08-08T10:55:31;22.00;67.10
30250;DHT22;17064;47.974;13.826;2023-08-08T11:00:34;22.10;65.80
30250;DHT22;17064;47.974;13.826;2023-08-08T11:05:37;22.10;62.70
30250;DHT22;17064;47.974;13.826;2023-08-08T11:10:39;22.20;65.40
30250;DHT22;17064;47.974;13.826;2023-08-08T11:15:41;22.30;64.80
30250;DHT22;17064;47.974;13.826;2023-08-08T11:20:42;22.50;66.00
30250;DHT22;17064;47.974;13.826;2023-08-08T11:25:44;22.60;65.20
30250;DHT22;17064;47.974;13.826;2023-08-08T11:30:45;22.60;62.70
30250;DHT22;17064;47.974;13.826;2023-08-08T11:35:46;22.50;58.20
30250;DHT22;17064;47.974;13.826;2023-08-08T11:40:49;22.20;61.90
30250;DHT22;17064;47.974;13.826;2023-08-08T11:45:50;21.90;62.80
30250;DHT22;17064;47.974;13.826;2023-08-08T11:50:53;21.80;64.90
30250;DHT22;17064;47.974;13.826;2023-08-08T11:55:54;21.70;61.40
30250;DHT22;17064;47.974;13.826;2023-08-08T12:00:56;21.80;66.20
30250;DHT22;17064;47.974;13.826;2023-08-08T12:05:58;21.90;63.80
30250;DHT22;17064;47.974;13.826;2023-08-08T12:11:00;21.90;59.50
30250;DHT22;17064;47.974;13.826;2023-08-08T12:16:03;21.80;62.10
30250;DHT22;17064;47.974;13.826;2023-08-08T12:21:05;21.80;60.20
30250;DHT22;17064;47.974;13.826;2023-08-08T12:26:07;21.90;64.20
30250;DHT22;17064;47.974;13.826;2023-08-08T12:31:08;22.10;59.20
30250;DHT22;17064;47.974;13.826;2023-08-08T12:36:09;22.00;59.70
30250;DHT22;17064;47.974;13.826;2023-08-08T12:41:09;22.10;61.50
30250;DHT22;17064;47.974;13.826;2023-08-08T12:46:11;21.90;63.80
30250;DHT22;17064;47.974;13.826;2023-08-08T12:51:12;22.00;65.60
30250;DHT22;17064;47.974;13.826;2023-08-08T12:56:13;22.10;62.70
30250;DHT22;17064;47.974;13.826;2023-08-08T13:01:13;22.10;58.90
30250;DHT22;17064;47.974;13.826;2023-08-08T13:06:14;22.30;64.40
30250;DHT22;17064;47.974;13.826;2023-08-08T13:11:15;22.30;57.40
30250;DHT22;17064;47.974;13.826;2023-08-08T13:16:15;22.10;59.60
30250;DHT22;17064;47.974;13.826;2023-08-08T13:21:16;22.00;62.80
30250;DHT22;17064;47.974;13.826;2023-08-08T13:26:20;22.20;58.00
30250;DHT22;17064;47.974;13.826;2023-08-08T13:31:20;22.00;62.10
30250;DHT22;17064;47.974;13.826;2023-08-08T13:36:21;22.00;63.20
30250;DHT22;17064;47.974;13.826;2023-08-08T13:41:22;21.90;59.80
30250;DHT22;17064;47.974;13.826;2023-08-08T13:46:23;21.80;59.90
30250;DHT22;17064;47.974;13.826;2023-08-08T13:51:24;21.70;61.00
30250;DHT22;17064;47.974;13.826;2023-08-08T13:56:25;21.60;60.20
30250;DHT22;17064;47.974;13.826;2023-08-08T14:01:25;21.40;56.80
30250;DHT22;17064;47.974;13.826;2023-08-08T14:06:26;21.30;61.80
30250;DHT22;17064;47.974;13.826;2023-08-08T14:11:27;21.20;59.60
30250;DHT22;17064;47.974;13.826;2023-08-08T14:16:28;21.00;61.00
30250;DHT22;17064;47.974;13.826;2023-08-08T14:21:28;20.90;64.50
30250;DHT22;17064;47.974;13.826;2023-08-08T14:26:29;20.80;65.90
30250;DHT22;17064;47.974;13.826;2023-08-08T14:31:30;20.80;66.40
30250;DHT22;17064;47.974;13.826;2023-08-08T14:36:31;20.70;62.10
30250;DHT22;17064;47.974;13.826;2023-08-08T14:41:32;20.60;63.90
30250;DHT22;17064;47.974;13.826;2023-08-08T14:46:33;20.50;65.90
30250;DHT22;17064;47.974;13.826;2023-08-08T14:51:35;20.50;68.50
30250;DHT22;17064;47.974;13.826;2023-08-08T14:56:36;20.50;65.80
30250;DHT22;17064;47.974;13.826;2023-08-08T15:01:36;20.60;67.50
30250;DHT22;17064;47.974;13.826;2023-08-08T15:06:37;20.80;63.10
30250;DHT22;17064;47.974;13.826;2023-08-08T15:11:40;20.90;66.00
30250;DHT22;17064;47.974;13.826;2023-08-08T15:16:41;20.90;65.60
30250;DHT22;17064;47.974;13.826;2023-08-08T15:21:43;20.80;65.20
30250;DHT22;17064;47.974;13.826;2023-08-08T15:26:44;20.80;66.50
30250;DHT22;17064;47.974;13.826;2023-08-08T15:31:44;20.70;63.30
30250;DHT22;17064;47.974;13.826;2023-08-08T15:36:45;20.60;65.10
30250;DHT22;17064;47.974;13.826;2023-08-08T15:41:46;20.60;64.30
30250;DHT22;17064;47.974;13.826;2023-08-08T15:46:46;20.60;66.70
30250;DHT22;17064;47.974;13.826;2023-08-08T15:51:47;20.40;66.70
30250;DHT22;17064;47.974;13.826;2023-08-08T15:56:48;20.30;67.10
30250;DHT22;17064;47.974;13.826;2023-08-08T16:01:49;20.20;66.00
30250;DHT22;17064;47.974;13.826;2023-08-08T16:06:49;20.10;66.00
30250;DHT22;17064;47.974;13.826;2023-08-08T16:11:50;20.00;67.40
30250;DHT22;17064;47.974;13.826;2023-08-08T16:16:51;20.00;68.40
30250;DHT22;17064;47.974;13.826;2023-08-08T16:21:51;20.10;68.20
30250;DHT22;17064;47.974;13.826;2023-08-08T16:26:52;20.10;68.70
30250;DHT22;17064;47.974;13.826;2023-08-08T16:31:53;20.10;66.20
30250;DHT22;17064;47.974;13.826;2023-08-08T16:36:54;20.10;69.70
30250;DHT22;17064;47.974;13.826;2023-08-08T16:41:54;19.90;69.80
30250;DHT22;17064;47.974;13.826;2023-08-08T16:46:58;19.80;68.50
30250;DHT22;17064;47.974;13.826;2023-08-08T16:51:59;19.70;70.40
30250;DHT22;17064;47.974;13.826;2023-08-08T16:57:00;19.60;70.80
30250;DHT22;17064;47.974;13.826;2023-08-08T17:02:00;19.50;73.20
30250;DHT22;17064;47.974;13.826;2023-08-08T17:07:01;19.40;72.90
30250;DHT22;17064;47.974;13.826;2023-08-08T17:12:02;19.40;72.30
30250;DHT22;17064;47.974;13.826;2023-08-08T17:17:03;19.40;73.30
30250;DHT22;17064;47.974;13.826;2023-08-08T17:22:04;19.40;72.80
30250;DHT22;17064;47.974;13.826;2023-08-08T17:27:05;19.30;73.90
30250;DHT22;17064;47.974;13.826;2023-08-08T17:32:06;19.20;73.90
30250;DHT22;17064;47.974;13.826;2023-08-08T17:37:08;19.10;75.40
30250;DHT22;17064;47.974;13.826;2023-08-08T17:42:09;19.00;77.10
30250;DHT22;17064;47.974;13.826;2023-08-08T17:47:10;18.80;77.90
30250;DHT22;17064;47.974;13.826;2023-08-08T17:52:11;18.70;78.10
30250;DHT22;17064;47.974;13.826;2023-08-08T17:57:12;18.50;77.90
30250;DHT22;17064;47.974;13.826;2023-08-08T18:02:14;18.40;79.30
30250;DHT22;17064;47.974;13.826;2023-08-08T18:07:17;18.20;81.80
30250;DHT22;17064;47.974;13.826;2023-08-08T18:12:18;18.00;83.90
30250;DHT22;17064;47.974;13.826;2023-08-08T18:17:22;17.90;86.20
30250;DHT22;17064;47.974;13.826;2023-08-08T18:22:23;17.70;88.30
30250;DHT22;17064;47.974;13.826;2023-08-08T18:27:24;17.60;90.30
30250;DHT22;17064;47.974;13.826;2023-08-08T18:32:26;17.40;91.80
30250;DHT22;17064;47.974;13.826;2023-08-08T18:37:29;17.30;92.50
30250;DHT22;17064;47.974;13.826;2023-08-08T18:42:32;17.30;93.00
30250;DHT22;17064;47.974;13.826;2023-08-08T18:47:33;17.20;93.50
30250;DHT22;17064;47.974;13.826;2023-08-08T18:52:35;17.10;95.40
30250;DHT22;17064;47.974;13.826;2023-08-08T18:57:36;17.00;97.30
30250;DHT22;17064;47.974;13.826;2023-08-08T19:02:37;16.90;99.30
30250;DHT22;17064;47.974;13.826;2023-08-08T19:07:39;16.80;99.90
30250;DHT22;17064;47.974;13.826;2023-08-08T19:12:39;16.70;99.90
30250;DHT22;17064;47.974;13.826;2023-08-08T19:17:41;16.50;99.90
30250;DHT22;17064;47.974;13.826;2023-08-08T19:22:42;16.40;99.90
30250;DHT22;17064;47.974;13.826;2023-08-08T19:27:43;16.30;99.90
30250;DHT22;17064;47.974;13.826;2023-08-08T19:32:44;16.20;99.90
30250;DHT22;17064;47.974;13.826;2023-08-08T19:37:45;16.10;99.90
30250;DHT22;17064;47.974;13.826;2023-08-08T19:42:47;16.00;99.90
30250;DHT22;17064;47.974;13.826;2023-08-08T19:47:48;15.90;99.90
30250;DHT22;17064;47.974;13.826;2023-08-08T19:52:49;15.80;99.90
30250;DHT22;17064;47.974;13.826;2023-08-08T19:57:50;15.70;99.90
30250;DHT22;17064;47.974;13.826;2023-08-08T20:02:51;15.60;99.90
30250;DHT22;17064;47.974;13.826;2023-08-08T20:07:53;15.40;99.90
30250;DHT22;17064;47.974;13.826;2023-08-08T20:12:54;15.30;99.90
30250;DHT22;17064;47.974;13.826;2023-08-08T20:17:55;15.20;99.90
30250;DHT22;17064;47.974;13.826;2023-08-08T20:22:57;15.00;99.90
30250;DHT22;17064;47.974;13.826;2023-08-08T20:27:58;14.90;99.90
30250;DHT22;17064;47.974;13.826;2023-08-08T20:33:00;14.90;99.90
30250;DHT22;17064;47.974;13.826;2023-08-08T20:38:01;14.90;99.90
30250;DHT22;17064;47.974;13.826;2023-08-08T20:43:02;14.90;99.90
30250;DHT22;17064;47.974;13.826;2023-08-08T20:48:03;14.90;99.90
30250;DHT22;17064;47.974;13.826;2023-08-08T20:53:04;14.80;99.90
30250;DHT22;17064;47.974;13.826;2023-08-08T20:58:06;14.80;99.90
30250;DHT22;17064;47.974;13.826;2023-08-08T21:03:07;14.70;99.90
30250;DHT22;17064;47.974;13.826;2023-08-08T21:08:08;14.60;99.90
30250;DHT22;17064;47.974;13.826;2023-08-08T21:13:09;14.50;99.90
30250;DHT22;17064;47.974;13.826;2023-08-08T21:18:09;14.30;99.90
30250;DHT22;17064;47.974;13.826;2023-08-08T21:23:10;14.20;99.90
30250;DHT22;17064;47.974;13.826;2023-08-08T21:28:11;14.00;99.90
30250;DHT22;17064;47.974;13.826;2023-08-08T21:33:11;13.90;99.90
30250;DHT22;17064;47.974;13.826;2023-08-08T21:38:12;13.80;99.90
30250;DHT22;17064;47.974;13.826;2023-08-08T21:43:13;13.70;99.90
30250;DHT22;17064;47.974;13.826;2023-08-08T21:48:13;13.70;99.90
30250;DHT22;17064;47.974;13.826;2023-08-08T21:53:14;13.70;99.90
30250;DHT22;17064;47.974;13.826;2023-08-08T21:58:15;13.70;99.90
30250;DHT22;17064;47.974;13.826;2023-08-08T22:03:16;13.70;99.90
30250;DHT22;17064;47.974;13.826;2023-08-08T22:08:16;13.80;99.90
30250;DHT22;17064;47.974;13.826;2023-08-08T22:13:17;13.90;99.90
30250;DHT22;17064;47.974;13.826;2023-08-08T22:18:19;14.00;99.90
30250;DHT22;17064;47.974;13.826;2023-08-08T22:23:20;14.10;99.90
30250;DHT22;17064;47.974;13.826;2023-08-08T22:28:21;14.10;99.90
30250;DHT22;17064;47.974;13.826;2023-08-08T22:33:22;14.10;99.90
30250;DHT22;17064;47.974;13.826;2023-08-08T22:38:22;14.20;99.90
30250;DHT22;17064;47.974;13.826;2023-08-08T22:43:23;14.20;99.90
30250;DHT22;17064;47.974;13.826;2023-08-08T22:48:24;14.20;99.90
30250;DHT22;17064;47.974;13.826;2023-08-08T22:53:25;14.30;99.90
30250;DHT22;17064;47.974;13.826;2023-08-08T22:58:25;14.30;99.90
30250;DHT22;17064;47.974;13.826;2023-08-08T23:03:26;14.30;99.90
30250;DHT22;17064;47.974;13.826;2023-08-08T23:08:28;14.30;99.90
30250;DHT22;17064;47.974;13.826;2023-08-08T23:13:29;14.40;99.90
30250;DHT22;17064;47.974;13.826;2023-08-08T23:18:30;14.40;99.90
30250;DHT22;17064;47.974;13.826;2023-08-08T23:23:31;14.40;99.90
30250;DHT22;17064;47.974;13.826;2023-08-08T23:28:31;14.40;99.90
30250;DHT22;17064;47.974;13.826;2023-08-08T23:33:32;14.40;99.90
30250;DHT22;17064;47.974;13.826;2023-08-08T23:38:33;14.40;99.90
30250;DHT22;17064;47.974;13.826;2023-08-08T23:43:33;14.40;99.90
30250;DHT22;17064;47.974;13.826;2023-08-08T23:48:35;14.40;99.90
30250;DHT22;17064;47.974;13.826;2023-08-08T23:53:35;14.40;99.90
30250;DHT22;17064;47.974;13.826;2023-08-08T23:58:36;14.40;99.90
